Lafferty, Ohio
Current Conditions -  °F | °C
As of 3:53 AM on Tuesday 21 Oct 2014 (Local Time) from KHLG Reporting Station
Overcast Overcast  
Wind Chill: 47°   Ceiling: 1800
Heat Index: 49°   Visibility: 9mi
Dew Point: 47°   Wind: 6mph
Humidity: 93%   Direction: 230°SW
Pressure: 29.85"   Gusts: NA
Location:  40.11°N, 81.02°W
Report Text: KHLG 210753Z AUTO 23005KT 9SM BKN018 OVC024 09/08 A2985 RMK AO2 SLP112 T00940083
Loading
Personal Weather Stations






























Interactive Weather Map
Tropical Storm Tracking
New forecast layout! Learn more

10-Day Weather Forecast

Advertisements
Track Severe Weather on mobile